Terminal Aerodrome Forecast
Issued by NWS

Current Version | Previous Version | Text Only | Print | Product List | Glossary On
Versions: 1 2 3 4 5 6 7 8 9 10 11 12 13 14 15 16 17 18 19 20 21
000
FTUS43 KIND 230539 AAA
TAFHUF
TAF AMD
KHUF 230539Z 2306/2406 22008KT P6SM SCT025 OVC050
      TEMPO 2306/2309 6SM -RA OVC025
     FM231000 23011G20KT P6SM VCSH OVC015
     FM231500 26012G20KT P6SM OVC015
     FM232100 29014G22KT P6SM OVC020
     FM240100 30009KT P6SM BKN025=

USA.gov is the U.S. government's official web portal to all federal, state and local government web resources and services.